sensor_id;sensor_type;location;lat;lon;timestamp;temperature;humidity
8914;DHT22;4492;48.736;9.092;2023-08-12T00:01:04;17.20;99.90
8914;DHT22;4492;48.736;9.092;2023-08-12T00:03:30;17.20;99.90
8914;DHT22;4492;48.736;9.092;2023-08-12T00:05:57;17.20;99.90
8914;DHT22;4492;48.736;9.092;2023-08-12T00:08:25;17.30;99.90
8914;DHT22;4492;48.736;9.092;2023-08-12T00:10:51;17.20;99.90
8914;DHT22;4492;48.736;9.092;2023-08-12T00:13:16;17.20;99.90
8914;DHT22;4492;48.736;9.092;2023-08-12T00:15:43;17.20;99.90
8914;DHT22;4492;48.736;9.092;2023-08-12T00:18:09;17.20;99.90
8914;DHT22;4492;48.736;9.092;2023-08-12T00:20:35;17.20;99.90
8914;DHT22;4492;48.736;9.092;2023-08-12T00:23:01;17.20;99.90
8914;DHT22;4492;48.736;9.092;2023-08-12T00:25:26;17.20;99.90
8914;DHT22;4492;48.736;9.092;2023-08-12T00:27:52;17.30;99.90
8914;DHT22;4492;48.736;9.092;2023-08-12T00:30:17;17.30;99.90
8914;DHT22;4492;48.736;9.092;2023-08-12T00:32:43;17.30;99.90
8914;DHT22;4492;48.736;9.092;2023-08-12T00:35:09;17.30;99.90
8914;DHT22;4492;48.736;9.092;2023-08-12T00:37:34;17.30;99.90
8914;DHT22;4492;48.736;9.092;2023-08-12T00:40:00;17.30;99.90
8914;DHT22;4492;48.736;9.092;2023-08-12T00:42:26;17.30;99.90
8914;DHT22;4492;48.736;9.092;2023-08-12T00:44:51;17.30;99.90
8914;DHT22;4492;48.736;9.092;2023-08-12T00:47:17;17.40;99.90
8914;DHT22;4492;48.736;9.092;2023-08-12T00:49:42;17.20;99.90
8914;DHT22;4492;48.736;9.092;2023-08-12T00:52:12;17.20;99.90
8914;DHT22;4492;48.736;9.092;2023-08-12T00:54:37;17.20;99.90
8914;DHT22;4492;48.736;9.092;2023-08-12T00:57:03;17.20;99.90
8914;DHT22;4492;48.736;9.092;2023-08-12T00:59:29;17.20;99.90
8914;DHT22;4492;48.736;9.092;2023-08-12T01:01:55;17.20;99.90
8914;DHT22;4492;48.736;9.092;2023-08-12T01:04:20;17.20;99.90
8914;DHT22;4492;48.736;9.092;2023-08-12T01:06:45;17.20;99.90
8914;DHT22;4492;48.736;9.092;2023-08-12T01:09:11;17.20;99.90
8914;DHT22;4492;48.736;9.092;2023-08-12T01:11:49;17.20;99.90
8914;DHT22;4492;48.736;9.092;2023-08-12T01:17:14;17.30;99.90
8914;DHT22;4492;48.736;9.092;2023-08-12T01:19:43;17.30;99.90
8914;DHT22;4492;48.736;9.092;2023-08-12T01:22:10;17.30;99.90
8914;DHT22;4492;48.736;9.092;2023-08-12T01:24:37;17.30;99.90
8914;DHT22;4492;48.736;9.092;2023-08-12T01:27:04;17.30;99.90
8914;DHT22;4492;48.736;9.092;2023-08-12T01:29:31;17.30;99.90
8914;DHT22;4492;48.736;9.092;2023-08-12T01:34:54;17.30;99.90
8914;DHT22;4492;48.736;9.092;2023-08-12T01:37:28;17.30;99.90
8914;DHT22;4492;48.736;9.092;2023-08-12T01:39:55;17.30;99.90
8914;DHT22;4492;48.736;9.092;2023-08-12T01:42:23;17.30;99.90
8914;DHT22;4492;48.736;9.092;2023-08-12T01:44:49;17.20;99.90
8914;DHT22;4492;48.736;9.092;2023-08-12T01:47:15;17.20;99.90
8914;DHT22;4492;48.736;9.092;2023-08-12T01:49:41;17.10;99.90
8914;DHT22;4492;48.736;9.092;2023-08-12T01:52:06;17.10;99.90
8914;DHT22;4492;48.736;9.092;2023-08-12T01:54:32;17.00;99.90
8914;DHT22;4492;48.736;9.092;2023-08-12T01:57:03;17.00;99.90
8914;DHT22;4492;48.736;9.092;2023-08-12T01:59:35;17.00;99.90
8914;DHT22;4492;48.736;9.092;2023-08-12T02:02:01;17.00;99.90
8914;DHT22;4492;48.736;9.092;2023-08-12T02:04:27;17.00;99.90
8914;DHT22;4492;48.736;9.092;2023-08-12T02:06:53;17.00;99.90
8914;DHT22;4492;48.736;9.092;2023-08-12T02:09:19;17.00;99.90
8914;DHT22;4492;48.736;9.092;2023-08-12T02:11:44;17.00;99.90
8914;DHT22;4492;48.736;9.092;2023-08-12T02:14:10;17.00;99.90
8914;DHT22;4492;48.736;9.092;2023-08-12T02:16:35;17.10;99.90
8914;DHT22;4492;48.736;9.092;2023-08-12T02:19:01;17.10;99.90
8914;DHT22;4492;48.736;9.092;2023-08-12T02:21:26;17.20;99.90
8914;DHT22;4492;48.736;9.092;2023-08-12T02:23:52;17.30;99.90
8914;DHT22;4492;48.736;9.092;2023-08-12T02:26:17;17.30;99.90
8914;DHT22;4492;48.736;9.092;2023-08-12T02:28:43;17.30;99.90
8914;DHT22;4492;48.736;9.092;2023-08-12T02:31:08;17.40;99.90
8914;DHT22;4492;48.736;9.092;2023-08-12T02:33:34;17.40;99.90
8914;DHT22;4492;48.736;9.092;2023-08-12T02:35:59;17.40;99.90
8914;DHT22;4492;48.736;9.092;2023-08-12T02:38:25;17.40;99.90
8914;DHT22;4492;48.736;9.092;2023-08-12T02:40:51;17.40;99.90
8914;DHT22;4492;48.736;9.092;2023-08-12T02:43:16;17.40;99.90
8914;DHT22;4492;48.736;9.092;2023-08-12T02:45:43;17.40;99.90
8914;DHT22;4492;48.736;9.092;2023-08-12T02:48:10;17.30;99.90
8914;DHT22;4492;48.736;9.092;2023-08-12T02:50:36;17.30;99.90
8914;DHT22;4492;48.736;9.092;2023-08-12T02:53:02;17.30;99.90
8914;DHT22;4492;48.736;9.092;2023-08-12T02:55:28;17.40;99.90
8914;DHT22;4492;48.736;9.092;2023-08-12T02:57:54;17.40;99.90
8914;DHT22;4492;48.736;9.092;2023-08-12T03:00:20;17.50;99.90
8914;DHT22;4492;48.736;9.092;2023-08-12T03:02:45;17.50;99.90
8914;DHT22;4492;48.736;9.092;2023-08-12T03:05:11;17.60;99.90
8914;DHT22;4492;48.736;9.092;2023-08-12T03:07:36;17.60;99.90
8914;DHT22;4492;48.736;9.092;2023-08-12T03:10:02;17.70;99.90
8914;DHT22;4492;48.736;9.092;2023-08-12T03:12:27;17.80;99.90
8914;DHT22;4492;48.736;9.092;2023-08-12T03:14:53;17.80;99.90
8914;DHT22;4492;48.736;9.092;2023-08-12T03:17:18;17.90;99.90
8914;DHT22;4492;48.736;9.092;2023-08-12T03:19:44;18.00;99.90
8914;DHT22;4492;48.736;9.092;2023-08-12T03:22:09;18.00;99.90
8914;DHT22;4492;48.736;9.092;2023-08-12T03:24:35;18.00;99.90
8914;DHT22;4492;48.736;9.092;2023-08-12T03:27:00;18.10;99.90
8914;DHT22;4492;48.736;9.092;2023-08-12T03:29:26;18.10;99.90
8914;DHT22;4492;48.736;9.092;2023-08-12T03:31:51;18.30;99.90
8914;DHT22;4492;48.736;9.092;2023-08-12T03:34:17;18.30;99.90
8914;DHT22;4492;48.736;9.092;2023-08-12T03:36:42;18.40;99.90
8914;DHT22;4492;48.736;9.092;2023-08-12T03:39:08;18.50;99.90
8914;DHT22;4492;48.736;9.092;2023-08-12T03:41:33;18.60;99.90
8914;DHT22;4492;48.736;9.092;2023-08-12T03:43:59;18.70;99.90
8914;DHT22;4492;48.736;9.092;2023-08-12T03:46:25;18.90;99.90
8914;DHT22;4492;48.736;9.092;2023-08-12T03:48:50;18.90;99.90
8914;DHT22;4492;48.736;9.092;2023-08-12T03:51:16;18.90;99.90
8914;DHT22;4492;48.736;9.092;2023-08-12T03:53:41;19.00;99.90
8914;DHT22;4492;48.736;9.092;2023-08-12T03:56:07;19.10;99.90
8914;DHT22;4492;48.736;9.092;2023-08-12T03:58:33;19.10;99.90
8914;DHT22;4492;48.736;9.092;2023-08-12T04:00:58;19.20;99.90
8914;DHT22;4492;48.736;9.092;2023-08-12T04:03:24;19.30;99.90
8914;DHT22;4492;48.736;9.092;2023-08-12T04:05:51;19.20;99.90
8914;DHT22;4492;48.736;9.092;2023-08-12T04:08:18;19.30;99.90
8914;DHT22;4492;48.736;9.092;2023-08-12T04:10:46;19.40;99.90
8914;DHT22;4492;48.736;9.092;2023-08-12T04:13:11;19.50;99.90
8914;DHT22;4492;48.736;9.092;2023-08-12T04:15:37;19.50;99.90
8914;DHT22;4492;48.736;9.092;2023-08-12T04:18:02;19.50;99.90
8914;DHT22;4492;48.736;9.092;2023-08-12T04:20:29;19.60;99.90
8914;DHT22;4492;48.736;9.092;2023-08-12T04:22:54;19.60;99.90
8914;DHT22;4492;48.736;9.092;2023-08-12T04:25:20;19.60;99.90
8914;DHT22;4492;48.736;9.092;2023-08-12T04:27:45;19.60;99.90
8914;DHT22;4492;48.736;9.092;2023-08-12T04:30:12;19.70;99.90
8914;DHT22;4492;48.736;9.092;2023-08-12T04:32:39;19.60;99.90
8914;DHT22;4492;48.736;9.092;2023-08-12T04:35:05;19.50;99.90
8914;DHT22;4492;48.736;9.092;2023-08-12T04:37:30;19.40;99.90
8914;DHT22;4492;48.736;9.092;2023-08-12T04:39:58;19.30;99.90
8914;DHT22;4492;48.736;9.092;2023-08-12T04:42:23;19.20;99.90
8914;DHT22;4492;48.736;9.092;2023-08-12T04:44:49;19.10;99.90
8914;DHT22;4492;48.736;9.092;2023-08-12T04:47:15;19.00;99.90
8914;DHT22;4492;48.736;9.092;2023-08-12T04:49:41;19.00;99.90
8914;DHT22;4492;48.736;9.092;2023-08-12T04:52:06;18.90;99.90
8914;DHT22;4492;48.736;9.092;2023-08-12T04:54:32;18.90;99.90
8914;DHT22;4492;48.736;9.092;2023-08-12T04:56:58;18.90;99.90
8914;DHT22;4492;48.736;9.092;2023-08-12T04:59:25;18.90;99.90
8914;DHT22;4492;48.736;9.092;2023-08-12T05:01:51;18.90;99.90
8914;DHT22;4492;48.736;9.092;2023-08-12T05:04:16;18.90;99.90
8914;DHT22;4492;48.736;9.092;2023-08-12T05:06:42;18.80;99.90
8914;DHT22;4492;48.736;9.092;2023-08-12T05:09:07;18.80;99.90
8914;DHT22;4492;48.736;9.092;2023-08-12T05:11:33;18.80;99.90
8914;DHT22;4492;48.736;9.092;2023-08-12T05:13:59;18.80;99.90
8914;DHT22;4492;48.736;9.092;2023-08-12T05:16:25;18.80;99.90
8914;DHT22;4492;48.736;9.092;2023-08-12T05:18:50;18.90;99.90
8914;DHT22;4492;48.736;9.092;2023-08-12T05:21:16;18.90;99.90
8914;DHT22;4492;48.736;9.092;2023-08-12T05:23:42;18.90;99.90
8914;DHT22;4492;48.736;9.092;2023-08-12T05:26:07;18.90;99.90
8914;DHT22;4492;48.736;9.092;2023-08-12T05:28:33;18.90;99.90
8914;DHT22;4492;48.736;9.092;2023-08-12T05:30:58;19.00;99.90
8914;DHT22;4492;48.736;9.092;2023-08-12T05:33:24;19.00;99.90
8914;DHT22;4492;48.736;9.092;2023-08-12T05:35:50;19.10;99.90
8914;DHT22;4492;48.736;9.092;2023-08-12T05:38:16;19.10;99.90
8914;DHT22;4492;48.736;9.092;2023-08-12T05:40:41;19.10;99.90
8914;DHT22;4492;48.736;9.092;2023-08-12T05:43:07;19.10;99.90
8914;DHT22;4492;48.736;9.092;2023-08-12T05:45:33;19.30;99.90
8914;DHT22;4492;48.736;9.092;2023-08-12T05:47:58;19.30;99.90
8914;DHT22;4492;48.736;9.092;2023-08-12T05:50:24;19.30;99.90
8914;DHT22;4492;48.736;9.092;2023-08-12T05:52:49;19.40;99.90
8914;DHT22;4492;48.736;9.092;2023-08-12T05:55:15;19.50;99.90
8914;DHT22;4492;48.736;9.092;2023-08-12T05:57:40;19.60;99.90
8914;DHT22;4492;48.736;9.092;2023-08-12T06:00:06;19.70;99.90
8914;DHT22;4492;48.736;9.092;2023-08-12T06:02:32;19.70;99.90
8914;DHT22;4492;48.736;9.092;2023-08-12T06:04:58;19.80;99.90
8914;DHT22;4492;48.736;9.092;2023-08-12T06:07:23;19.80;99.90
8914;DHT22;4492;48.736;9.092;2023-08-12T06:09:49;19.80;99.90
8914;DHT22;4492;48.736;9.092;2023-08-12T06:12:16;19.80;99.90
8914;DHT22;4492;48.736;9.092;2023-08-12T06:14:41;19.90;99.90
8914;DHT22;4492;48.736;9.092;2023-08-12T06:17:07;20.00;99.90
8914;DHT22;4492;48.736;9.092;2023-08-12T06:19:33;20.10;99.90
8914;DHT22;4492;48.736;9.092;2023-08-12T06:21:59;20.30;99.90
8914;DHT22;4492;48.736;9.092;2023-08-12T06:24:24;20.30;99.90
8914;DHT22;4492;48.736;9.092;2023-08-12T06:26:50;20.40;99.90
8914;DHT22;4492;48.736;9.092;2023-08-12T06:29:15;20.50;99.90
8914;DHT22;4492;48.736;9.092;2023-08-12T06:31:41;20.60;99.90
8914;DHT22;4492;48.736;9.092;2023-08-12T06:34:07;20.70;99.90
8914;DHT22;4492;48.736;9.092;2023-08-12T06:36:32;20.70;99.90
8914;DHT22;4492;48.736;9.092;2023-08-12T06:38:58;20.80;99.90
8914;DHT22;4492;48.736;9.092;2023-08-12T06:41:23;20.90;99.90
8914;DHT22;4492;48.736;9.092;2023-08-12T06:43:49;21.10;99.90
8914;DHT22;4492;48.736;9.092;2023-08-12T06:46:14;21.30;99.90
8914;DHT22;4492;48.736;9.092;2023-08-12T06:48:40;21.60;99.90
8914;DHT22;4492;48.736;9.092;2023-08-12T06:51:06;22.00;99.90
8914;DHT22;4492;48.736;9.092;2023-08-12T06:53:40;22.40;99.90
8914;DHT22;4492;48.736;9.092;2023-08-12T06:56:06;22.60;99.90
8914;DHT22;4492;48.736;9.092;2023-08-12T06:58:32;22.70;99.90
8914;DHT22;4492;48.736;9.092;2023-08-12T07:00:57;22.80;99.90
8914;DHT22;4492;48.736;9.092;2023-08-12T07:03:24;22.80;99.90
8914;DHT22;4492;48.736;9.092;2023-08-12T07:05:50;23.00;99.90
8914;DHT22;4492;48.736;9.092;2023-08-12T07:08:16;23.30;99.90
8914;DHT22;4492;48.736;9.092;2023-08-12T07:10:41;23.60;99.90
8914;DHT22;4492;48.736;9.092;2023-08-12T07:13:07;23.70;99.90
8914;DHT22;4492;48.736;9.092;2023-08-12T07:15:32;23.70;99.90
8914;DHT22;4492;48.736;9.092;2023-08-12T07:17:58;23.80;99.90
8914;DHT22;4492;48.736;9.092;2023-08-12T07:20:24;24.00;99.90
8914;DHT22;4492;48.736;9.092;2023-08-12T07:22:50;24.20;99.90
8914;DHT22;4492;48.736;9.092;2023-08-12T07:25:16;24.50;99.90
8914;DHT22;4492;48.736;9.092;2023-08-12T07:27:41;24.50;99.90
8914;DHT22;4492;48.736;9.092;2023-08-12T07:30:07;24.60;99.90
8914;DHT22;4492;48.736;9.092;2023-08-12T07:32:34;24.80;99.90
8914;DHT22;4492;48.736;9.092;2023-08-12T07:34:59;24.80;99.90
8914;DHT22;4492;48.736;9.092;2023-08-12T07:37:25;24.90;99.90
8914;DHT22;4492;48.736;9.092;2023-08-12T07:39:51;25.00;99.90
8914;DHT22;4492;48.736;9.092;2023-08-12T07:42:17;25.20;99.90
8914;DHT22;4492;48.736;9.092;2023-08-12T07:44:43;25.30;99.90
8914;DHT22;4492;48.736;9.092;2023-08-12T07:47:08;25.40;99.90
8914;DHT22;4492;48.736;9.092;2023-08-12T07:49:34;25.50;99.90
8914;DHT22;4492;48.736;9.092;2023-08-12T07:52:00;25.60;99.90
8914;DHT22;4492;48.736;9.092;2023-08-12T07:54:26;25.80;99.90
8914;DHT22;4492;48.736;9.092;2023-08-12T07:56:51;25.90;99.90
8914;DHT22;4492;48.736;9.092;2023-08-12T07:59:19;25.90;99.90
8914;DHT22;4492;48.736;9.092;2023-08-12T08:01:44;26.00;99.90
8914;DHT22;4492;48.736;9.092;2023-08-12T08:04:10;26.20;99.90
8914;DHT22;4492;48.736;9.092;2023-08-12T08:06:36;26.40;99.00
8914;DHT22;4492;48.736;9.092;2023-08-12T08:09:01;26.40;98.40
8914;DHT22;4492;48.736;9.092;2023-08-12T08:11:30;26.30;98.80
8914;DHT22;4492;48.736;9.092;2023-08-12T08:13:56;26.40;98.70
8914;DHT22;4492;48.736;9.092;2023-08-12T08:16:22;26.60;98.40
8914;DHT22;4492;48.736;9.092;2023-08-12T08:18:47;26.80;98.10
8914;DHT22;4492;48.736;9.092;2023-08-12T08:21:13;26.80;97.00
8914;DHT22;4492;48.736;9.092;2023-08-12T08:23:40;26.60;97.70
8914;DHT22;4492;48.736;9.092;2023-08-12T08:26:06;26.50;97.20
8914;DHT22;4492;48.736;9.092;2023-08-12T08:28:32;26.60;96.50
8914;DHT22;4492;48.736;9.092;2023-08-12T08:30:57;26.70;97.50
8914;DHT22;4492;48.736;9.092;2023-08-12T08:33:24;26.90;96.50
8914;DHT22;4492;48.736;9.092;2023-08-12T08:35:50;26.90;95.90
8914;DHT22;4492;48.736;9.092;2023-08-12T08:38:15;26.90;96.20
8914;DHT22;4492;48.736;9.092;2023-08-12T08:40:42;27.00;96.30
8914;DHT22;4492;48.736;9.092;2023-08-12T08:43:08;26.90;95.70
8914;DHT22;4492;48.736;9.092;2023-08-12T08:45:34;26.80;95.60
8914;DHT22;4492;48.736;9.092;2023-08-12T08:48:01;26.90;95.10
8914;DHT22;4492;48.736;9.092;2023-08-12T08:50:29;27.10;94.90
8914;DHT22;4492;48.736;9.092;2023-08-12T08:52:56;27.20;94.30
8914;DHT22;4492;48.736;9.092;2023-08-12T08:55:22;27.40;94.20
8914;DHT22;4492;48.736;9.092;2023-08-12T08:57:49;27.50;94.20
8914;DHT22;4492;48.736;9.092;2023-08-12T09:00:18;27.70;93.50
8914;DHT22;4492;48.736;9.092;2023-08-12T09:02:46;27.90;93.10
8914;DHT22;4492;48.736;9.092;2023-08-12T09:05:13;27.80;92.00
8914;DHT22;4492;48.736;9.092;2023-08-12T09:07:41;28.00;91.90
8914;DHT22;4492;48.736;9.092;2023-08-12T09:10:07;28.10;91.30
8914;DHT22;4492;48.736;9.092;2023-08-12T09:12:34;28.20;90.80
8914;DHT22;4492;48.736;9.092;2023-08-12T09:14:59;28.40;90.30
8914;DHT22;4492;48.736;9.092;2023-08-12T09:17:25;28.50;89.70
8914;DHT22;4492;48.736;9.092;2023-08-12T09:19:51;28.50;90.00
8914;DHT22;4492;48.736;9.092;2023-08-12T09:22:18;28.50;89.70
8914;DHT22;4492;48.736;9.092;2023-08-12T09:24:43;28.60;90.10
8914;DHT22;4492;48.736;9.092;2023-08-12T09:27:09;28.80;90.30
8914;DHT22;4492;48.736;9.092;2023-08-12T09:29:35;29.00;89.10
8914;DHT22;4492;48.736;9.092;2023-08-12T09:32:11;29.00;88.30
8914;DHT22;4492;48.736;9.092;2023-08-12T09:34:47;28.90;89.60
8914;DHT22;4492;48.736;9.092;2023-08-12T09:37:14;28.70;90.40
8914;DHT22;4492;48.736;9.092;2023-08-12T09:39:40;29.00;88.90
8914;DHT22;4492;48.736;9.092;2023-08-12T09:42:06;29.20;87.10
8914;DHT22;4492;48.736;9.092;2023-08-12T09:44:35;29.20;89.80
8914;DHT22;4492;48.736;9.092;2023-08-12T09:47:00;29.60;88.40
8914;DHT22;4492;48.736;9.092;2023-08-12T09:49:26;29.80;86.30
8914;DHT22;4492;48.736;9.092;2023-08-12T09:51:53;29.80;85.20
8914;DHT22;4492;48.736;9.092;2023-08-12T09:54:18;29.40;86.80
8914;DHT22;4492;48.736;9.092;2023-08-12T09:56:47;29.20;89.40
8914;DHT22;4492;48.736;9.092;2023-08-12T09:59:18;28.90;90.30
8914;DHT22;4492;48.736;9.092;2023-08-12T10:01:44;28.80;90.20
8914;DHT22;4492;48.736;9.092;2023-08-12T10:04:11;28.80;90.70
8914;DHT22;4492;48.736;9.092;2023-08-12T10:06:40;28.90;91.40
8914;DHT22;4492;48.736;9.092;2023-08-12T10:09:06;29.00;90.10
8914;DHT22;4492;48.736;9.092;2023-08-12T10:11:34;29.20;90.20
8914;DHT22;4492;48.736;9.092;2023-08-12T10:14:01;29.40;89.70
8914;DHT22;4492;48.736;9.092;2023-08-12T10:16:29;29.40;88.90
8914;DHT22;4492;48.736;9.092;2023-08-12T10:18:56;29.30;90.10
8914;DHT22;4492;48.736;9.092;2023-08-12T10:21:22;29.40;89.70
8914;DHT22;4492;48.736;9.092;2023-08-12T10:23:50;29.40;88.80
8914;DHT22;4492;48.736;9.092;2023-08-12T10:26:17;29.50;89.30
8914;DHT22;4492;48.736;9.092;2023-08-12T10:28:43;29.50;91.00
8914;DHT22;4492;48.736;9.092;2023-08-12T10:31:11;29.60;88.50
8914;DHT22;4492;48.736;9.092;2023-08-12T10:33:40;29.60;88.60
8914;DHT22;4492;48.736;9.092;2023-08-12T10:36:07;29.60;90.20
8914;DHT22;4492;48.736;9.092;2023-08-12T10:38:33;29.50;90.10
8914;DHT22;4492;48.736;9.092;2023-08-12T10:41:19;29.60;90.10
8914;DHT22;4492;48.736;9.092;2023-08-12T10:44:08;29.50;88.70
8914;DHT22;4492;48.736;9.092;2023-08-12T10:46:36;29.60;89.80
8914;DHT22;4492;48.736;9.092;2023-08-12T10:49:08;29.80;87.80
8914;DHT22;4492;48.736;9.092;2023-08-12T10:51:53;30.10;85.60
8914;DHT22;4492;48.736;9.092;2023-08-12T10:54:27;30.30;87.30
8914;DHT22;4492;48.736;9.092;2023-08-12T11:02:32;30.70;83.70
8914;DHT22;4492;48.736;9.092;2023-08-12T11:05:08;30.30;84.10
8914;DHT22;4492;48.736;9.092;2023-08-12T11:10:16;29.70;83.90
8914;DHT22;4492;48.736;9.092;2023-08-12T11:12:53;29.60;84.00
8914;DHT22;4492;48.736;9.092;2023-08-12T11:15:33;29.70;85.60
8914;DHT22;4492;48.736;9.092;2023-08-12T11:18:01;30.10;84.60
8914;DHT22;4492;48.736;9.092;2023-08-12T11:20:27;30.50;83.70
8914;DHT22;4492;48.736;9.092;2023-08-12T11:22:54;30.70;82.80
8914;DHT22;4492;48.736;9.092;2023-08-12T11:25:20;30.80;81.60
8914;DHT22;4492;48.736;9.092;2023-08-12T11:27:47;30.90;81.10
8914;DHT22;4492;48.736;9.092;2023-08-12T11:30:14;30.90;80.90
8914;DHT22;4492;48.736;9.092;2023-08-12T11:32:44;30.90;81.50
8914;DHT22;4492;48.736;9.092;2023-08-12T11:35:11;30.90;81.80
8914;DHT22;4492;48.736;9.092;2023-08-12T11:37:38;30.80;83.60
8914;DHT22;4492;48.736;9.092;2023-08-12T11:40:06;30.80;84.10
8914;DHT22;4492;48.736;9.092;2023-08-12T11:42:34;30.50;83.80
8914;DHT22;4492;48.736;9.092;2023-08-12T11:44:59;30.70;84.40
8914;DHT22;4492;48.736;9.092;2023-08-12T11:47:25;31.00;83.90
8914;DHT22;4492;48.736;9.092;2023-08-12T11:49:52;31.10;83.20
8914;DHT22;4492;48.736;9.092;2023-08-12T11:52:19;31.20;84.40
8914;DHT22;4492;48.736;9.092;2023-08-12T11:54:45;31.30;82.10
8914;DHT22;4492;48.736;9.092;2023-08-12T11:57:10;31.30;81.50
8914;DHT22;4492;48.736;9.092;2023-08-12T11:59:36;31.50;81.10
8914;DHT22;4492;48.736;9.092;2023-08-12T12:02:03;31.60;79.40
8914;DHT22;4492;48.736;9.092;2023-08-12T12:04:32;31.60;80.30
8914;DHT22;4492;48.736;9.092;2023-08-12T12:06:58;31.50;79.50
8914;DHT22;4492;48.736;9.092;2023-08-12T12:09:25;31.00;81.60
8914;DHT22;4492;48.736;9.092;2023-08-12T12:11:54;30.40;82.90
8914;DHT22;4492;48.736;9.092;2023-08-12T12:14:21;29.90;85.70
8914;DHT22;4492;48.736;9.092;2023-08-12T12:16:48;29.40;88.30
8914;DHT22;4492;48.736;9.092;2023-08-12T12:19:19;29.00;93.70
8914;DHT22;4492;48.736;9.092;2023-08-12T12:21:50;28.20;95.30
8914;DHT22;4492;48.736;9.092;2023-08-12T12:24:17;26.70;99.90
8914;DHT22;4492;48.736;9.092;2023-08-12T12:26:44;25.30;99.90
8914;DHT22;4492;48.736;9.092;2023-08-12T12:29:10;24.20;99.90
8914;DHT22;4492;48.736;9.092;2023-08-12T12:31:40;23.50;99.90
8914;DHT22;4492;48.736;9.092;2023-08-12T12:34:06;22.90;99.90
8914;DHT22;4492;48.736;9.092;2023-08-12T12:36:37;22.40;99.90
8914;DHT22;4492;48.736;9.092;2023-08-12T12:39:06;22.00;99.90
8914;DHT22;4492;48.736;9.092;2023-08-12T12:41:33;21.80;99.90
8914;DHT22;4492;48.736;9.092;2023-08-12T12:44:02;21.70;99.90
8914;DHT22;4492;48.736;9.092;2023-08-12T12:46:30;21.50;99.90
8914;DHT22;4492;48.736;9.092;2023-08-12T12:48:55;21.40;99.90
8914;DHT22;4492;48.736;9.092;2023-08-12T12:51:21;21.40;99.90
8914;DHT22;4492;48.736;9.092;2023-08-12T12:53:46;21.50;99.90
8914;DHT22;4492;48.736;9.092;2023-08-12T12:56:12;21.60;99.90
8914;DHT22;4492;48.736;9.092;2023-08-12T12:58:37;21.70;99.90
8914;DHT22;4492;48.736;9.092;2023-08-12T13:01:04;21.90;99.90
8914;DHT22;4492;48.736;9.092;2023-08-12T13:03:30;22.10;99.90
8914;DHT22;4492;48.736;9.092;2023-08-12T13:05:57;22.20;99.90
8914;DHT22;4492;48.736;9.092;2023-08-12T13:08:23;22.40;99.90
8914;DHT22;4492;48.736;9.092;2023-08-12T13:10:48;22.60;99.90
8914;DHT22;4492;48.736;9.092;2023-08-12T13:13:15;22.80;99.90
8914;DHT22;4492;48.736;9.092;2023-08-12T13:15:41;22.90;99.90
8914;DHT22;4492;48.736;9.092;2023-08-12T13:18:07;22.90;99.90
8914;DHT22;4492;48.736;9.092;2023-08-12T13:20:34;22.90;99.90
8914;DHT22;4492;48.736;9.092;2023-08-12T13:23:00;23.00;99.90
8914;DHT22;4492;48.736;9.092;2023-08-12T13:25:27;23.00;99.90
8914;DHT22;4492;48.736;9.092;2023-08-12T13:27:53;23.00;99.90
8914;DHT22;4492;48.736;9.092;2023-08-12T13:30:18;23.10;99.90
8914;DHT22;4492;48.736;9.092;2023-08-12T13:32:44;23.20;99.90
8914;DHT22;4492;48.736;9.092;2023-08-12T13:35:10;23.20;99.90
8914;DHT22;4492;48.736;9.092;2023-08-12T13:37:36;23.40;99.90
8914;DHT22;4492;48.736;9.092;2023-08-12T13:40:02;23.50;99.90
8914;DHT22;4492;48.736;9.092;2023-08-12T13:42:28;23.60;99.90
8914;DHT22;4492;48.736;9.092;2023-08-12T13:44:53;23.90;99.90
8914;DHT22;4492;48.736;9.092;2023-08-12T13:47:19;24.30;99.90
8914;DHT22;4492;48.736;9.092;2023-08-12T13:49:44;24.70;99.90
8914;DHT22;4492;48.736;9.092;2023-08-12T13:52:10;25.20;99.90
8914;DHT22;4492;48.736;9.092;2023-08-12T13:54:35;25.60;99.90
8914;DHT22;4492;48.736;9.092;2023-08-12T13:57:02;25.90;99.90
8914;DHT22;4492;48.736;9.092;2023-08-12T13:59:28;26.20;99.90
8914;DHT22;4492;48.736;9.092;2023-08-12T14:01:53;26.50;99.90
8914;DHT22;4492;48.736;9.092;2023-08-12T14:04:19;26.90;99.90
8914;DHT22;4492;48.736;9.092;2023-08-12T14:06:45;27.10;99.90
8914;DHT22;4492;48.736;9.092;2023-08-12T14:09:11;27.10;99.90
8914;DHT22;4492;48.736;9.092;2023-08-12T14:11:42;27.00;99.90
8914;DHT22;4492;48.736;9.092;2023-08-12T14:14:07;26.90;99.90
8914;DHT22;4492;48.736;9.092;2023-08-12T14:16:33;26.70;99.90
8914;DHT22;4492;48.736;9.092;2023-08-12T14:18:58;26.70;99.90
8914;DHT22;4492;48.736;9.092;2023-08-12T14:21:24;26.80;99.90
8914;DHT22;4492;48.736;9.092;2023-08-12T14:23:49;26.80;99.90
8914;DHT22;4492;48.736;9.092;2023-08-12T14:26:15;26.90;99.90
8914;DHT22;4492;48.736;9.092;2023-08-12T14:28:40;26.90;99.90
8914;DHT22;4492;48.736;9.092;2023-08-12T14:31:06;27.00;99.90
8914;DHT22;4492;48.736;9.092;2023-08-12T14:33:31;27.10;99.90
8914;DHT22;4492;48.736;9.092;2023-08-12T14:35:58;27.20;99.90
8914;DHT22;4492;48.736;9.092;2023-08-12T14:38:23;27.30;99.90
8914;DHT22;4492;48.736;9.092;2023-08-12T14:40:49;27.40;99.90
8914;DHT22;4492;48.736;9.092;2023-08-12T14:43:15;27.50;99.90
8914;DHT22;4492;48.736;9.092;2023-08-12T14:45:40;27.70;99.90
8914;DHT22;4492;48.736;9.092;2023-08-12T14:48:06;27.70;99.90
8914;DHT22;4492;48.736;9.092;2023-08-12T14:50:32;27.70;99.90
8914;DHT22;4492;48.736;9.092;2023-08-12T14:52:58;27.60;99.90
8914;DHT22;4492;48.736;9.092;2023-08-12T14:55:23;27.70;99.90
8914;DHT22;4492;48.736;9.092;2023-08-12T14:57:49;27.90;99.90
8914;DHT22;4492;48.736;9.092;2023-08-12T15:00:14;27.90;99.90
8914;DHT22;4492;48.736;9.092;2023-08-12T15:02:40;27.80;99.90
8914;DHT22;4492;48.736;9.092;2023-08-12T15:05:06;27.90;99.90
8914;DHT22;4492;48.736;9.092;2023-08-12T15:07:32;28.10;99.50
8914;DHT22;4492;48.736;9.092;2023-08-12T15:09:58;28.30;98.10
8914;DHT22;4492;48.736;9.092;2023-08-12T15:12:24;28.30;98.50
8914;DHT22;4492;48.736;9.092;2023-08-12T15:14:50;28.40;97.80
8914;DHT22;4492;48.736;9.092;2023-08-12T15:17:16;28.40;98.00
8914;DHT22;4492;48.736;9.092;2023-08-12T15:19:42;28.50;97.30
8914;DHT22;4492;48.736;9.092;2023-08-12T15:22:07;28.40;97.00
8914;DHT22;4492;48.736;9.092;2023-08-12T15:24:33;28.40;97.20
8914;DHT22;4492;48.736;9.092;2023-08-12T15:26:58;28.50;97.00
8914;DHT22;4492;48.736;9.092;2023-08-12T15:29:24;28.40;96.50
8914;DHT22;4492;48.736;9.092;2023-08-12T15:31:50;28.20;97.10
8914;DHT22;4492;48.736;9.092;2023-08-12T15:34:15;28.00;97.30
8914;DHT22;4492;48.736;9.092;2023-08-12T15:36:41;27.70;97.50
8914;DHT22;4492;48.736;9.092;2023-08-12T15:39:07;27.40;98.30
8914;DHT22;4492;48.736;9.092;2023-08-12T15:41:33;27.00;98.60
8914;DHT22;4492;48.736;9.092;2023-08-12T15:43:59;26.80;99.00
8914;DHT22;4492;48.736;9.092;2023-08-12T15:46:25;26.60;99.60
8914;DHT22;4492;48.736;9.092;2023-08-12T15:48:50;26.40;99.90
8914;DHT22;4492;48.736;9.092;2023-08-12T15:51:16;26.10;99.90
8914;DHT22;4492;48.736;9.092;2023-08-12T15:53:41;26.00;99.90
8914;DHT22;4492;48.736;9.092;2023-08-12T15:56:07;25.80;99.90
8914;DHT22;4492;48.736;9.092;2023-08-12T15:58:32;25.60;99.90
8914;DHT22;4492;48.736;9.092;2023-08-12T16:00:58;25.40;99.90
8914;DHT22;4492;48.736;9.092;2023-08-12T16:03:24;25.30;99.90
8914;DHT22;4492;48.736;9.092;2023-08-12T16:05:50;25.30;99.90
8914;DHT22;4492;48.736;9.092;2023-08-12T16:08:16;25.20;99.90
8914;DHT22;4492;48.736;9.092;2023-08-12T16:10:42;25.00;99.90